createdAt,value
2019-01-20T00:02:12.231Z,34.35
2019-01-20T00:04:43.680Z,33.92
2019-01-20T00:07:13.955Z,35.52
2019-01-20T00:09:44.258Z,33.42
2019-01-20T00:12:14.671Z,34.70
2019-01-20T00:14:45.017Z,32.67
2019-01-20T00:17:15.675Z,33.78
2019-01-20T00:19:45.948Z,33.35
2019-01-20T00:22:16.283Z,32.93
2019-01-20T00:24:46.601Z,31.35
2019-01-20T00:27:16.903Z,32.48
2019-01-20T00:29:47.271Z,31.55
2019-01-20T00:32:17.582Z,32.08
2019-01-20T00:34:47.812Z,31.35
2019-01-20T00:37:18.488Z,29.70
2019-01-20T00:39:48.788Z,30.17
2019-01-20T00:42:19.094Z,31.27
2019-01-20T00:44:49.503Z,30.25
2019-01-20T00:47:19.741Z,29.70
2019-01-20T00:49:50.077Z,30.25
2019-01-20T00:52:20.315Z,30.05
2019-01-20T00:54:50.542Z,30.68
2019-01-20T00:57:20.885Z,28.50
2019-01-20T00:59:54.155Z,28.25
2019-01-20T01:02:24.532Z,29.12
2019-01-20T01:04:54.856Z,29.18
2019-01-20T01:07:25.198Z,28.35
2019-01-20T01:09:55.487Z,27.77
2019-01-20T01:12:26.534Z,27.93
2019-01-20T01:14:56.844Z,26.37
2019-01-20T01:17:27.236Z,27.48
2019-01-20T01:19:57.594Z,27.75
2019-01-20T01:22:27.888Z,27.70
2019-01-20T01:24:58.339Z,26.23
2019-01-20T01:27:28.656Z,27.00
2019-01-20T01:31:04.048Z,26.17
2019-01-20T01:33:34.418Z,26.40
2019-01-20T01:36:04.717Z,27.70
2019-01-20T01:38:35.090Z,35.63
2019-01-20T01:41:05.315Z,33.88
2019-01-20T01:43:36.750Z,34.45
2019-01-20T01:46:06.926Z,36.20
2019-01-20T01:48:37.349Z,35.68
2019-01-20T01:51:07.729Z,36.88
2019-01-20T01:53:38.043Z,37.55
2019-01-20T01:56:08.429Z,37.30
2019-01-20T01:58:38.790Z,37.23
2019-01-20T02:01:10.726Z,37.25
2019-01-20T02:03:41.360Z,36.85
2019-01-20T02:06:11.801Z,36.68
2019-01-20T02:08:42.077Z,35.80
2019-01-20T02:11:12.696Z,35.65
2019-01-20T02:13:44.116Z,37.00
2019-01-20T02:16:15.443Z,37.28
2019-01-20T02:18:45.998Z,35.05
2019-01-20T02:21:16.246Z,36.13
2019-01-20T02:23:46.655Z,36.85
2019-01-20T02:26:16.917Z,36.28
2019-01-20T02:28:47.465Z,35.35
2019-01-20T02:31:17.731Z,35.28
2019-01-20T02:33:48.079Z,34.73
2019-01-20T02:36:18.432Z,33.28
2019-01-20T02:38:48.747Z,32.75
2019-01-20T02:41:19.022Z,32.85
2019-01-20T02:43:49.280Z,32.23
2019-01-20T02:46:19.636Z,32.93
2019-01-20T02:48:50.072Z,32.45
2019-01-20T02:51:20.532Z,33.58
2019-01-20T02:53:50.828Z,33.45
2019-01-20T02:56:21.128Z,31.68
2019-01-20T02:58:51.485Z,31.80
2019-01-20T03:01:21.779Z,31.65
2019-01-20T03:03:52.003Z,31.77
2019-01-20T03:06:22.520Z,32.40
2019-01-20T03:08:52.860Z,31.82
2019-01-20T03:11:24.208Z,31.00
2019-01-20T03:13:54.555Z,31.35
2019-01-20T03:16:24.853Z,29.87
2019-01-20T03:18:55.750Z,30.50
2019-01-20T03:21:26.122Z,29.27
2019-01-20T03:23:56.417Z,30.00
2019-01-20T03:26:26.709Z,30.20
2019-01-20T03:28:57.042Z,29.42
2019-01-20T03:31:29.385Z,28.87
2019-01-20T03:33:59.649Z,27.32
2019-01-20T03:36:30.026Z,27.93
2019-01-20T03:39:00.380Z,27.17
2019-01-20T03:41:30.759Z,27.67
2019-01-20T03:44:04.111Z,27.32
2019-01-20T03:46:34.435Z,26.33
2019-01-20T03:49:04.721Z,26.10
2019-01-20T03:51:35.079Z,27.07
2019-01-20T03:54:06.668Z,27.13
2019-01-20T03:56:38.015Z,26.80
2019-01-20T03:59:08.337Z,26.95
2019-01-20T04:01:38.583Z,26.37
2019-01-20T04:04:08.842Z,25.60
2019-01-20T04:06:39.205Z,24.72
2019-01-20T04:09:09.597Z,25.60
2019-01-20T04:11:39.890Z,24.50
2019-01-20T04:14:10.191Z,25.25
2019-01-20T04:16:41.920Z,24.80
2019-01-20T04:19:12.161Z,23.42
2019-01-20T04:21:42.465Z,25.02
2019-01-20T04:24:12.756Z,24.92
2019-01-20T04:26:43.046Z,23.65
2019-01-20T04:29:13.499Z,22.62
2019-01-20T04:31:43.860Z,24.00
2019-01-20T04:34:14.145Z,22.75
2019-01-20T04:36:44.466Z,21.48
2019-01-20T04:39:14.845Z,22.95
2019-01-20T04:41:45.320Z,22.60
2019-01-20T04:44:15.577Z,23.25
2019-01-20T04:46:46.378Z,22.55
2019-01-20T04:49:16.670Z,23.00
2019-01-20T04:51:46.906Z,21.45
2019-01-20T04:54:17.394Z,20.37
2019-01-20T04:56:47.695Z,21.85
2019-01-20T04:59:18.197Z,20.70
2019-01-20T05:01:48.478Z,21.55
2019-01-20T05:04:18.757Z,20.45
2019-01-20T05:06:48.982Z,21.55
2019-01-20T05:09:19.355Z,20.60
2019-01-20T05:11:49.582Z,20.23
2019-01-20T05:14:19.957Z,19.95
2019-01-20T05:16:53.373Z,19.15
2019-01-20T05:19:23.694Z,19.45
2019-01-20T05:21:54.354Z,18.90
2019-01-20T05:24:24.673Z,18.30
2019-01-20T05:26:54.974Z,18.62
2019-01-20T05:29:25.249Z,18.62
2019-01-20T05:31:55.533Z,18.20
2019-01-20T05:34:26.067Z,19.85
2019-01-20T05:36:56.289Z,18.50
2019-01-20T05:39:27.594Z,17.35
2019-01-20T05:41:57.911Z,17.35
2019-01-20T05:44:28.254Z,17.65
2019-01-20T05:46:58.519Z,16.75
2019-01-20T05:49:28.796Z,18.48
2019-01-20T05:51:59.231Z,18.73
2019-01-20T05:54:29.485Z,17.65
2019-01-20T05:56:59.809Z,17.20
2019-01-20T05:59:30.109Z,16.52
2019-01-20T06:02:01.600Z,17.80
2019-01-20T06:04:31.808Z,17.17
2019-01-20T06:07:02.144Z,16.48
2019-01-20T06:09:32.437Z,15.35
2019-01-20T06:12:02.823Z,15.93
2019-01-20T06:14:33.249Z,16.12
2019-01-20T06:17:03.621Z,14.78
2019-01-20T06:19:33.923Z,14.80
2019-01-20T06:22:04.608Z,14.75
2019-01-20T06:24:34.976Z,22.52
2019-01-20T06:27:05.346Z,21.23
2019-01-20T06:29:35.898Z,20.85
2019-01-20T06:32:09.689Z,22.85
2019-01-20T06:34:40.029Z,21.75
2019-01-20T06:37:10.335Z,26.70
2019-01-20T06:39:40.690Z,26.70
2019-01-20T06:42:11.033Z,28.30
2019-01-20T06:44:41.352Z,28.20
2019-01-20T06:47:11.613Z,25.95
2019-01-20T06:49:41.831Z,25.32
2019-01-20T06:52:12.008Z,28.25
2019-01-20T06:54:42.307Z,29.90
2019-01-20T06:57:12.615Z,28.77
2019-01-20T06:59:42.845Z,31.73
2019-01-20T07:02:13.121Z,37.03
2019-01-20T07:04:43.389Z,35.00
2019-01-20T07:07:13.704Z,37.25
2019-01-20T07:09:43.949Z,37.08
2019-01-20T07:12:14.552Z,36.28
2019-01-20T07:14:45.788Z,32.90
2019-01-20T07:17:16.218Z,31.65
2019-01-20T07:19:46.556Z,30.95
2019-01-20T07:22:16.915Z,27.40
2019-01-20T07:24:47.165Z,28.40
2019-01-20T07:27:17.509Z,26.87
2019-01-20T07:29:47.824Z,29.30
2019-01-20T07:32:18.098Z,27.07
2019-01-20T07:34:48.461Z,27.50
2019-01-20T07:37:18.804Z,27.42
2019-01-20T07:39:49.091Z,27.40
2019-01-20T07:42:20.261Z,25.40
2019-01-20T07:44:50.567Z,27.35
2019-01-20T07:47:20.877Z,24.70
2019-01-20T07:49:51.182Z,25.80
2019-01-20T07:52:21.442Z,25.88
2019-01-20T07:54:51.812Z,27.50
2019-01-20T07:57:22.087Z,25.27
2019-01-20T07:59:52.835Z,23.60
2019-01-20T08:02:25.179Z,28.55
2019-01-20T08:04:56.624Z,37.50
2019-01-20T08:07:28.087Z,33.95
2019-01-20T08:09:58.832Z,40.98
2019-01-20T08:12:29.814Z,52.35
2019-01-20T08:15:00.763Z,57.85
2019-01-20T08:17:31.105Z,56.30
2019-01-20T08:20:01.759Z,52.25
2019-01-20T08:22:33.252Z,44.40
2019-01-20T08:25:03.461Z,51.37
2019-01-20T08:27:33.805Z,52.13
2019-01-20T08:30:04.103Z,55.63
2019-01-20T08:32:34.415Z,54.35
2019-01-20T08:35:05.174Z,50.00
2019-01-20T08:37:36.225Z,51.98
2019-01-20T08:40:08.948Z,48.13
2019-01-20T08:42:42.249Z,41.50
2019-01-20T08:45:17.131Z,45.70
2019-01-20T08:47:51.914Z,44.90
2019-01-20T08:50:22.314Z,44.05
2019-01-20T08:52:53.184Z,47.43
2019-01-20T08:55:23.450Z,55.55
2019-01-20T08:57:53.819Z,56.75
2019-01-20T09:00:24.080Z,64.77
2019-01-20T09:02:54.565Z,67.70
2019-01-20T09:05:25.208Z,67.15
2019-01-20T09:07:55.940Z,74.87
2019-01-20T09:10:28.115Z,69.40
2019-01-20T09:13:01.476Z,67.72
2019-01-20T09:15:32.679Z,60.45
2019-01-20T09:18:02.870Z,53.00
2019-01-20T09:20:33.105Z,48.83
2019-01-20T09:23:03.335Z,49.75
2019-01-20T09:25:33.555Z,50.65
2019-01-20T09:28:04.308Z,50.45
2019-01-20T09:30:34.601Z,49.20
2019-01-20T09:33:04.894Z,50.30
2019-01-20T09:35:35.828Z,48.42
2019-01-20T09:38:08.430Z,53.38
2019-01-20T09:40:38.716Z,52.00
2019-01-20T09:43:09.044Z,51.63
2019-01-20T09:45:40.117Z,58.38
2019-01-20T09:48:10.401Z,72.70
2019-01-20T09:50:40.790Z,62.10
2019-01-20T09:53:11.031Z,63.10
2019-01-20T09:55:44.083Z,63.20
2019-01-20T09:58:14.361Z,58.50
2019-01-20T10:00:44.687Z,57.23
2019-01-20T10:03:16.275Z,54.93
2019-01-20T10:05:46.812Z,53.40
2019-01-20T10:08:17.144Z,55.80
2019-01-20T10:10:47.479Z,53.08
2019-01-20T10:13:18.834Z,53.68
2019-01-20T10:15:52.266Z,54.67
2019-01-20T10:18:22.681Z,54.55
2019-01-20T10:20:52.920Z,50.28
2019-01-20T10:23:23.214Z,53.78
2019-01-20T10:25:53.606Z,51.35
2019-01-20T10:28:26.093Z,48.63
2019-01-20T10:30:56.447Z,47.35
2019-01-20T10:33:26.861Z,49.70
2019-01-20T10:36:06.087Z,50.90
2019-01-20T10:38:37.355Z,49.75
2019-01-20T10:41:08.303Z,51.88
2019-01-20T10:43:38.627Z,52.78
2019-01-20T10:46:09.855Z,53.87
2019-01-20T10:48:40.227Z,53.02
2019-01-20T10:51:10.558Z,55.30
2019-01-20T10:53:40.770Z,53.58
2019-01-20T10:56:11.284Z,52.75
2019-01-20T10:58:41.624Z,55.28
2019-01-20T11:01:11.893Z,52.00
2019-01-20T11:03:42.185Z,53.35
2019-01-20T11:06:12.685Z,53.50
2019-01-20T11:08:42.948Z,53.30
2019-01-20T11:11:13.222Z,53.70
2019-01-20T11:13:45.773Z,51.90
2019-01-20T11:16:16.126Z,51.85
2019-01-20T11:18:48.982Z,51.60
2019-01-20T11:21:19.201Z,50.23
2019-01-20T11:23:49.652Z,50.73
2019-01-20T11:26:19.937Z,50.25
2019-01-20T11:28:50.244Z,51.37
2019-01-20T11:31:20.567Z,48.08
2019-01-20T11:33:50.818Z,48.70
2019-01-20T11:36:21.053Z,49.60
2019-01-20T11:38:51.391Z,47.88
2019-01-20T11:41:21.688Z,48.92
2019-01-20T11:43:52.220Z,48.17
2019-01-20T11:46:22.466Z,49.40
2019-01-20T11:48:52.733Z,47.48
2019-01-20T11:51:22.962Z,47.40
2019-01-20T11:53:53.265Z,45.90
2019-01-20T11:56:23.600Z,47.43
2019-01-20T11:58:53.950Z,45.90
2019-01-20T12:01:24.372Z,47.20
2019-01-20T12:03:54.618Z,46.58
2019-01-20T12:06:25.557Z,44.30
2019-01-20T12:08:55.925Z,45.52
2019-01-20T12:11:26.277Z,45.20
2019-01-20T12:13:56.575Z,42.75
2019-01-20T12:16:26.821Z,43.13
2019-01-20T12:18:57.854Z,43.63
2019-01-20T12:21:28.101Z,42.20
2019-01-20T12:23:58.562Z,42.55
2019-01-20T12:26:28.826Z,40.67
2019-01-20T12:28:59.072Z,41.80
2019-01-20T12:31:29.339Z,42.35
2019-01-20T12:33:59.600Z,43.08
2019-01-20T12:36:29.847Z,40.12
2019-01-20T12:39:00.198Z,38.28
2019-01-20T12:41:30.471Z,39.38
2019-01-20T12:44:00.755Z,39.35
2019-01-20T12:46:31.116Z,39.25
2019-01-20T12:49:01.590Z,40.30
2019-01-20T12:51:31.955Z,37.30
2019-01-20T12:54:02.535Z,38.42
2019-01-20T12:56:32.872Z,37.78
2019-01-20T12:59:03.254Z,37.40
2019-01-20T13:01:33.607Z,36.45
2019-01-20T13:04:03.914Z,36.48
2019-01-20T13:06:34.658Z,35.38
2019-01-20T13:09:08.077Z,36.80
2019-01-20T13:11:38.449Z,35.83
2019-01-20T13:14:08.751Z,35.00
2019-01-20T13:16:39.022Z,36.13
2019-01-20T13:19:09.289Z,34.23
2019-01-20T13:21:39.625Z,34.80
2019-01-20T13:24:09.926Z,32.65
2019-01-20T13:26:40.184Z,32.93
2019-01-20T13:29:10.460Z,33.80
2019-01-20T13:31:40.770Z,31.95
2019-01-20T13:34:11.024Z,33.10
2019-01-20T13:36:41.593Z,33.23
2019-01-20T13:39:13.854Z,32.50
2019-01-20T13:41:44.128Z,31.37
2019-01-20T13:44:15.517Z,31.52
2019-01-20T13:46:45.802Z,31.65
2019-01-20T13:49:16.061Z,31.70
2019-01-20T13:51:46.365Z,31.07
2019-01-20T13:54:16.631Z,30.15
2019-01-20T13:56:46.934Z,29.82
2019-01-20T13:59:17.323Z,29.75
2019-01-20T14:01:47.562Z,29.92
2019-01-20T14:04:17.797Z,29.95
2019-01-20T14:06:48.725Z,29.15
2019-01-20T14:09:19.583Z,29.57
2019-01-20T14:11:49.986Z,28.38
2019-01-20T14:14:20.287Z,27.02
2019-01-20T14:16:51.644Z,27.25
2019-01-20T14:19:22.032Z,25.82
2019-01-20T14:21:52.680Z,26.93
2019-01-20T14:24:23.121Z,27.00
2019-01-20T14:26:54.025Z,25.95
2019-01-20T14:29:24.464Z,25.90
2019-01-20T14:31:54.868Z,26.85
2019-01-20T14:34:25.351Z,26.42
2019-01-20T14:36:56.528Z,26.42
2019-01-20T14:39:27.018Z,25.60
2019-01-20T14:41:57.602Z,24.95
2019-01-20T14:44:28.096Z,26.00
2019-01-20T14:46:58.898Z,25.90
2019-01-20T14:49:29.231Z,25.43
2019-01-20T14:52:00.166Z,26.05
2019-01-20T14:54:32.822Z,24.92
2019-01-20T14:57:06.490Z,24.45
2019-01-20T14:59:37.568Z,24.92
2019-01-20T15:02:11.680Z,24.23
2019-01-20T15:04:42.282Z,25.00
2019-01-20T15:07:12.727Z,25.48
2019-01-20T15:09:43.639Z,27.87
2019-01-20T15:12:14.364Z,28.17
2019-01-20T15:14:44.695Z,29.35
2019-01-20T15:17:15.006Z,27.37
2019-01-20T15:19:46.314Z,28.45
2019-01-20T15:22:16.853Z,31.12
2019-01-20T15:24:47.644Z,29.07
2019-01-20T15:27:18.366Z,30.85
2019-01-20T15:29:49.230Z,28.07
2019-01-20T15:32:19.562Z,29.60
2019-01-20T15:34:50.548Z,28.57
2019-01-20T15:37:20.836Z,28.67
2019-01-20T15:39:51.218Z,28.55
2019-01-20T15:42:21.530Z,28.05
2019-01-20T15:44:51.969Z,27.10
2019-01-20T15:47:22.283Z,26.60
2019-01-20T15:49:52.689Z,27.00
2019-01-20T15:52:23.079Z,26.87
2019-01-20T15:54:53.441Z,26.17
2019-01-20T15:57:23.749Z,26.37
2019-01-20T15:59:54.113Z,26.97
2019-01-20T16:02:24.849Z,27.70
2019-01-20T16:04:55.354Z,26.85
2019-01-20T16:07:25.636Z,26.73
2019-01-20T16:09:56.074Z,26.82
2019-01-20T16:12:26.434Z,26.30
2019-01-20T16:14:56.746Z,26.77
2019-01-20T16:17:27.033Z,24.63
2019-01-20T16:19:57.375Z,25.70
2019-01-20T16:22:28.781Z,24.95
2019-01-20T16:24:59.251Z,24.72
2019-01-20T16:27:29.761Z,24.75
2019-01-20T16:30:00.353Z,25.23
2019-01-20T16:32:31.436Z,23.47
2019-01-20T16:35:01.674Z,24.50
2019-01-20T16:37:32.045Z,23.50
2019-01-20T16:40:02.334Z,24.18
2019-01-20T16:42:32.768Z,24.30
2019-01-20T16:45:03.184Z,24.35
2019-01-20T16:47:33.541Z,24.47
2019-01-20T16:50:03.921Z,24.45
2019-01-20T16:52:34.302Z,24.57
2019-01-20T16:55:05.169Z,25.70
2019-01-20T16:57:35.451Z,25.05
2019-01-20T17:00:07.044Z,24.43
2019-01-20T17:02:37.353Z,24.92
2019-01-20T17:05:09.229Z,27.15
2019-01-20T17:07:39.650Z,26.50
2019-01-20T17:10:13.891Z,27.17
2019-01-20T17:12:44.216Z,26.57
2019-01-20T17:15:20.574Z,28.27
2019-01-20T17:17:50.922Z,28.47
2019-01-20T17:20:21.219Z,28.92
2019-01-20T17:22:51.646Z,31.17
2019-01-20T17:25:21.948Z,28.55
2019-01-20T17:27:53.787Z,29.92
2019-01-20T17:30:26.383Z,29.05
2019-01-20T17:32:57.791Z,28.95
2019-01-20T17:35:28.305Z,30.32
2019-01-20T17:37:58.576Z,29.23
2019-01-20T17:40:28.937Z,30.23
2019-01-20T17:42:59.176Z,30.12
2019-01-20T17:45:31.694Z,31.02
2019-01-20T17:48:01.961Z,34.63
2019-01-20T17:50:34.592Z,34.23
2019-01-20T17:53:06.769Z,38.25
2019-01-20T17:55:37.309Z,40.30
2019-01-20T17:58:08.065Z,48.83
2019-01-20T18:00:41.935Z,56.58
2019-01-20T18:03:12.190Z,53.23
2019-01-20T18:05:42.528Z,50.92
2019-01-20T18:08:12.794Z,51.13
2019-01-20T18:10:43.142Z,57.05
2019-01-20T18:13:14.575Z,55.88
2019-01-20T18:15:46.061Z,54.48
2019-01-20T18:18:19.434Z,54.00
2019-01-20T18:20:50.099Z,53.50
2019-01-20T18:23:20.981Z,51.00
2019-01-20T18:25:51.758Z,51.35
2019-01-20T18:28:22.183Z,51.83
2019-01-20T18:30:52.515Z,51.40
2019-01-20T18:33:22.858Z,52.38
2019-01-20T18:35:52.959Z,49.48
2019-01-20T18:38:23.800Z,53.52
2019-01-20T18:40:55.166Z,57.40
2019-01-20T18:43:27.560Z,58.48
2019-01-20T18:46:01.861Z,57.23
2019-01-20T18:48:31.087Z,57.40
2019-01-20T18:51:01.731Z,58.17
2019-01-20T18:53:34.501Z,59.67
2019-01-20T18:56:04.849Z,60.38
2019-01-20T18:58:35.105Z,61.73
2019-01-20T19:01:05.614Z,63.38
2019-01-20T19:03:35.929Z,61.83
2019-01-20T19:06:07.167Z,61.90
2019-01-20T19:08:37.522Z,63.15
2019-01-20T19:11:07.866Z,61.80
2019-01-20T19:13:38.262Z,60.60
2019-01-20T19:16:08.969Z,61.90
2019-01-20T19:18:39.562Z,61.40
2019-01-20T19:21:10.102Z,58.33
2019-01-20T19:23:40.395Z,62.65
2019-01-20T19:26:10.654Z,66.60
2019-01-20T19:28:41.382Z,66.77
2019-01-20T19:31:11.573Z,69.25
2019-01-20T19:33:42.008Z,70.15
2019-01-20T19:36:12.352Z,73.10
2019-01-20T19:38:42.619Z,73.05
2019-01-20T19:41:12.881Z,75.12
2019-01-20T19:43:43.243Z,75.50
2019-01-20T19:46:16.465Z,71.47
2019-01-20T19:48:45.824Z,75.37
2019-01-20T19:51:17.216Z,75.00
2019-01-20T19:53:52.466Z,65.25
2019-01-20T19:56:22.823Z,58.50
2019-01-20T19:58:53.660Z,57.98
2019-01-20T20:01:30.741Z,61.58
2019-01-20T20:03:56.930Z,59.98
2019-01-20T20:06:27.433Z,57.78
2019-01-20T20:08:57.835Z,61.13
2019-01-20T20:11:28.184Z,58.63
2019-01-20T20:13:58.871Z,59.95
2019-01-20T20:16:29.190Z,69.87
2019-01-20T20:19:00.055Z,71.60
2019-01-20T20:21:33.149Z,70.03
2019-01-20T20:24:03.940Z,71.92
2019-01-20T20:26:37.298Z,65.83
2019-01-20T20:29:07.647Z,65.42
2019-01-20T20:31:38.373Z,63.08
2019-01-20T20:34:08.766Z,63.90
2019-01-20T20:36:39.217Z,63.17
2019-01-20T20:39:09.611Z,66.02
2019-01-20T20:41:42.102Z,65.72
2019-01-20T20:44:12.417Z,69.62
2019-01-20T20:46:43.860Z,62.15
2019-01-20T20:49:14.483Z,66.47
2019-01-20T20:51:44.873Z,61.50
2019-01-20T20:54:16.734Z,70.83
2019-01-20T20:56:47.060Z,70.28
2019-01-20T20:59:17.374Z,75.20
2019-01-20T21:01:47.611Z,87.55
2019-01-20T21:04:17.974Z,77.58
2019-01-20T21:06:48.318Z,65.75
2019-01-20T21:09:18.543Z,67.65
2019-01-20T21:11:48.889Z,65.90
2019-01-20T21:14:19.140Z,68.45
2019-01-20T21:16:49.717Z,68.85
2019-01-20T21:19:20.197Z,66.00
2019-01-20T21:21:50.484Z,65.95
2019-01-20T21:24:20.840Z,66.70
2019-01-20T21:26:51.309Z,64.77
2019-01-20T21:29:22.230Z,65.20
2019-01-20T21:31:52.828Z,68.17
2019-01-20T21:34:23.093Z,66.15
2019-01-20T21:36:53.772Z,64.03
2019-01-20T21:39:24.057Z,63.78
2019-01-20T21:41:54.347Z,62.95
2019-01-20T21:44:24.872Z,62.93
2019-01-20T21:46:56.156Z,62.83
2019-01-20T21:49:27.474Z,63.83
2019-01-20T21:51:57.761Z,61.83
2019-01-20T21:54:28.860Z,65.20
2019-01-20T21:56:59.215Z,63.00
2019-01-20T21:59:29.500Z,60.95
2019-01-20T22:01:59.871Z,65.08
2019-01-20T22:04:30.164Z,66.97
2019-01-20T22:07:00.491Z,67.42
2019-01-20T22:09:31.257Z,65.78
2019-01-20T22:12:01.597Z,67.25
2019-01-20T22:14:31.886Z,67.12
2019-01-20T22:17:02.128Z,65.87
2019-01-20T22:19:32.394Z,65.03
2019-01-20T22:22:02.703Z,65.12
2019-01-20T22:24:32.937Z,65.40
2019-01-20T22:27:03.230Z,64.15
2019-01-20T22:29:33.467Z,64.17
2019-01-20T22:32:03.825Z,62.50
2019-01-20T22:34:34.136Z,64.40
2019-01-20T22:37:04.589Z,63.08
2019-01-20T22:39:34.910Z,61.10
2019-01-20T22:42:05.224Z,59.55
2019-01-20T22:44:35.513Z,60.15
2019-01-20T22:47:05.746Z,60.52
2019-01-20T22:49:36.051Z,60.10
2019-01-20T22:52:06.284Z,59.77
2019-01-20T22:54:36.662Z,59.70
2019-01-20T22:57:06.943Z,59.77
2019-01-20T22:59:37.303Z,58.08
2019-01-20T23:02:07.552Z,58.87
2019-01-20T23:04:37.765Z,59.98
2019-01-20T23:07:08.060Z,57.93
2019-01-20T23:09:38.359Z,57.48
2019-01-20T23:12:08.662Z,58.38
2019-01-20T23:14:38.912Z,56.60
2019-01-20T23:17:09.191Z,56.42
2019-01-20T23:19:39.433Z,56.18
2019-01-20T23:22:09.699Z,55.28
2019-01-20T23:24:40.298Z,55.58
2019-01-20T23:27:10.581Z,53.80
2019-01-20T23:29:41.977Z,54.33
2019-01-20T23:32:12.322Z,54.03
2019-01-20T23:34:42.524Z,53.30
2019-01-20T23:37:12.800Z,52.30
2019-01-20T23:39:43.064Z,51.68
2019-01-20T23:42:13.300Z,52.30
2019-01-20T23:44:44.668Z,51.73
2019-01-20T23:47:15.491Z,52.60
2019-01-20T23:49:45.909Z,52.88
2019-01-20T23:52:16.207Z,52.08
2019-01-20T23:54:46.459Z,51.30
2019-01-20T23:57:16.771Z,49.73
2019-01-20T23:59:47.107Z,49.70
